Duo, West Virginia
Current Conditions -  °F | °C
As of 10:35 AM on Saturday 20 Dec 2014 (Local Time) from KLWB Reporting Station
Overcast Overcast  
Wind Chill: 29°   Ceiling: 2700
Heat Index: 29°   Visibility: 10mi
Dew Point: 24°   Wind: 0mph
Humidity: 80%   Direction: NA
Pressure: 30.2"   Gusts: NA
Location:  37.948°N, 80.6919°W
Report Text: KLWB 201535Z AUTO 00000KT 10SM SCT016 OVC027 M01/M04 A3020 RMK AO2 T10151045
Loading
Personal Weather Stations






























Interactive Weather Map New forecast layout! Learn more

10-Day Weather Forecast

Advertisements
Track Severe Weather on mobile